Time;durP1;ratioP1;P1;durP2;ratioP2;P2;SDS_P1;SDS_P2;PMS_P1;PMS_P2;Temp;Humidity;BMP_temperature;BMP_pressure;BME280_temperature;BME280_humidity;BME280_pressure;Samples;Min_cycle;Max_cycle;Signal;HPM_P1;HPM_P2
2022/10/30 00:00:33;;;;;;;7.07;3.55;;;13.00;99.90;;;;;;4977227;28;20524;-93
2022/10/30 00:02:59;;;;;;;12.88;3.40;;;13.00;99.90;;;;;;4992826;28;20520;-92
2022/10/30 00:05:25;;;;;;;11.40;4.25;;;13.00;99.90;;;;;;4978333;28;20326;-91
2022/10/30 00:07:53;;;;;;;8.15;3.67;;;13.00;99.90;;;;;;4978054;28;20196;-91
2022/10/30 00:10:25;;;;;;;15.40;3.70;;;13.10;99.90;;;;;;4978150;28;20169;-94
2022/10/30 00:12:51;;;;;;;18.30;4.00;;;13.10;99.90;;;;;;4992819;28;20181;-91
2022/10/30 00:15:17;;;;;;;8.57;3.40;;;13.10;99.90;;;;;;4992944;28;20219;-86
2022/10/30 00:17:42;;;;;;;10.80;3.50;;;13.10;99.90;;;;;;4993127;28;20530;-92
2022/10/30 00:20:09;;;;;;;7.28;3.72;;;13.10;99.90;;;;;;4977802;28;20181;-92
2022/10/30 00:22:36;;;;;;;12.00;3.55;;;13.00;99.90;;;;;;4978263;28;20165;-93
2022/10/30 00:25:03;;;;;;;9.93;3.80;;;13.10;99.90;;;;;;4976718;28;20520;-88
2022/10/30 00:27:30;;;;;;;13.32;3.40;;;13.10;99.90;;;;;;4977565;28;20620;-91
2022/10/30 00:29:56;;;;;;;5.15;3.20;;;13.20;99.90;;;;;;4993670;28;20196;-90
2022/10/30 00:32:21;;;;;;;6.63;3.45;;;13.10;99.90;;;;;;4996139;28;20179;-87
2022/10/30 00:34:47;;;;;;;6.88;2.92;;;13.10;99.90;;;;;;4996775;28;20306;-87
2022/10/30 00:37:13;;;;;;;9.15;3.53;;;13.10;99.90;;;;;;4995867;28;20183;-90
2022/10/30 00:39:41;;;;;;;13.02;3.65;;;13.00;99.90;;;;;;4995953;28;20211;-91
2022/10/30 00:42:15;;;;;;;7.68;4.25;;;13.00;99.90;;;;;;4997058;28;20188;-86
2022/10/30 00:44:43;;;;;;;11.10;4.53;;;13.10;99.90;;;;;;4996773;28;20172;-90
2022/10/30 00:47:18;;;;;;;14.15;3.95;;;13.10;99.90;;;;;;4995581;28;20215;-91
2022/10/30 00:50:19;;;;;;;20.23;4.57;;;13.10;99.90;;;;;;4995811;28;20175;-90
2022/10/30 00:52:53;;;;;;;11.05;4.45;;;13.20;99.90;;;;;;4996830;28;20234;-87
2022/10/30 00:55:25;;;;;;;8.40;3.70;;;13.20;99.90;;;;;;4996714;28;20279;-90
2022/10/30 00:57:52;;;;;;;10.57;4.13;;;13.30;99.90;;;;;;4996734;28;20231;-90
2022/10/30 01:00:23;;;;;;;6.70;4.15;;;13.20;99.90;;;;;;4996841;28;20215;-89
2022/10/30 01:02:50;;;;;;;8.05;3.45;;;13.20;99.90;;;;;;4996601;28;20160;-88
2022/10/30 01:05:19;;;;;;;4.45;3.53;;;13.20;99.90;;;;;;4995628;28;20207;-90
2022/10/30 01:07:44;;;;;;;11.23;3.72;;;13.20;99.90;;;;;;4996561;28;20182;-90
2022/10/30 01:10:12;;;;;;;12.88;4.30;;;13.30;99.90;;;;;;4995229;28;20184;-91
2022/10/30 01:12:39;;;;;;;8.30;3.97;;;13.30;99.90;;;;;;4996478;28;20171;-90
2022/10/30 01:15:06;;;;;;;11.85;3.97;;;13.30;99.90;;;;;;4995160;28;20212;-93
2022/10/30 01:17:56;;;;;;;16.75;4.20;;;13.20;99.90;;;;;;4995262;28;20623;-88
2022/10/30 01:20:39;;;;;;;10.25;4.80;;;13.20;99.90;;;;;;4996325;28;20234;-87
2022/10/30 01:23:36;;;;;;;8.45;5.15;;;13.20;99.90;;;;;;4995165;28;20183;-93
2022/10/30 01:26:22;;;;;;;11.65;6.00;;;13.30;99.90;;;;;;4995041;28;20204;-87
2022/10/30 01:29:32;;;;;;;10.05;5.30;;;13.40;99.90;;;;;;4995073;28;20587;-89
2022/10/30 01:32:08;;;;;;;9.57;4.93;;;13.60;99.90;;;;;;4992996;28;20648;-89
2022/10/30 01:34:46;;;;;;;18.08;5.40;;;13.60;99.90;;;;;;4994926;28;20638;-90
2022/10/30 01:37:47;;;;;;;10.55;4.78;;;13.60;99.90;;;;;;4996207;28;20188;-90
2022/10/30 01:40:20;;;;;;;8.85;4.78;;;13.50;99.90;;;;;;4994998;28;20253;-90
2022/10/30 01:42:47;;;;;;;11.48;5.45;;;13.60;99.90;;;;;;4995008;28;20868;-89
2022/10/30 01:45:35;;;;;;;10.00;5.07;;;13.60;99.90;;;;;;4994628;28;20184;-90
2022/10/30 01:48:03;;;;;;;9.05;5.20;;;13.60;99.90;;;;;;4995437;28;20191;-88
2022/10/30 01:51:07;;;;;;;16.65;5.03;;;13.60;99.90;;;;;;4994810;28;20184;-90
2022/10/30 01:53:50;;;;;;;11.05;5.25;;;13.60;99.90;;;;;;4996412;28;20243;-89
2022/10/30 01:56:25;;;;;;;12.75;5.18;;;13.60;99.90;;;;;;4996164;28;20310;-90
2022/10/30 01:59:17;;;;;;;9.13;5.10;;;13.60;99.90;;;;;;4995731;28;20235;-91
2022/10/30 02:01:46;;;;;;;10.30;5.28;;;13.60;99.90;;;;;;4992758;28;20266;-90
2022/10/30 02:04:13;;;;;;;11.82;5.80;;;13.60;99.90;;;;;;4994910;28;20248;-88
2022/10/30 02:06:39;;;;;;;16.88;5.38;;;13.50;99.90;;;;;;4994880;28;20606;-84
2022/10/30 02:09:06;;;;;;;11.30;5.50;;;13.50;99.90;;;;;;4994866;28;20199;-84
2022/10/30 02:11:33;;;;;;;16.52;5.43;;;13.50;99.90;;;;;;4993506;28;20190;-84
2022/10/30 02:14:04;;;;;;;11.15;4.68;;;13.50;99.90;;;;;;4994586;28;20230;-90
2022/10/30 02:16:33;;;;;;;15.93;5.35;;;13.50;99.90;;;;;;4993738;28;20207;-90
2022/10/30 02:19:00;;;;;;;12.98;5.10;;;13.50;99.90;;;;;;4994803;28;20172;-90
2022/10/30 02:21:27;;;;;;;12.18;4.97;;;13.50;99.90;;;;;;4993552;28;20207;-92
2022/10/30 02:23:52;;;;;;;10.63;4.50;;;13.50;99.90;;;;;;4994226;28;20607;-84
2022/10/30 02:26:18;;;;;;;15.02;5.10;;;13.50;99.90;;;;;;4995715;28;20205;-83
2022/10/30 02:28:44;;;;;;;10.90;5.03;;;13.50;99.90;;;;;;4998489;28;20190;-84
2022/10/30 02:31:10;;;;;;;12.35;5.00;;;13.50;99.90;;;;;;4998805;28;20176;-84
2022/10/30 02:33:35;;;;;;;13.00;5.43;;;13.50;99.90;;;;;;4998599;28;20196;-85
2022/10/30 02:36:01;;;;;;;11.00;4.55;;;13.50;99.90;;;;;;4997399;28;20187;-85
2022/10/30 02:38:26;;;;;;;12.57;4.90;;;13.50;99.90;;;;;;4998452;28;20176;-84
2022/10/30 02:40:52;;;;;;;9.40;4.28;;;13.50;99.90;;;;;;4997278;28;20176;-83
2022/10/30 02:43:18;;;;;;;15.05;4.93;;;13.50;99.90;;;;;;4998234;28;20659;-83
2022/10/30 02:45:49;;;;;;;12.95;4.88;;;13.50;99.90;;;;;;4998515;28;20187;-83
2022/10/30 02:48:15;;;;;;;19.50;4.65;;;13.50;99.90;;;;;;4998258;28;20176;-84
2022/10/30 02:50:40;;;;;;;11.15;4.82;;;13.50;99.90;;;;;;4997025;28;20187;-83
2022/10/30 02:53:06;;;;;;;14.93;4.68;;;13.50;99.90;;;;;;4998109;28;20184;-84
2022/10/30 02:55:32;;;;;;;8.55;4.50;;;13.50;99.90;;;;;;4996901;28;20264;-84
2022/10/30 02:57:57;;;;;;;16.75;4.70;;;13.40;99.90;;;;;;4997881;28;20594;-84
2022/10/30 03:00:24;;;;;;;18.08;4.47;;;13.40;99.90;;;;;;4996445;28;20186;-89
2022/10/30 03:02:54;;;;;;;12.15;4.60;;;13.40;99.90;;;;;;4996588;28;20183;-90
2022/10/30 03:05:20;;;;;;;11.15;4.72;;;13.50;99.90;;;;;;4996701;28;20234;-83
2022/10/30 03:07:47;;;;;;;12.88;5.18;;;13.50;99.90;;;;;;4996610;28;20180;-83
2022/10/30 03:10:14;;;;;;;20.17;5.25;;;13.60;99.90;;;;;;4996456;28;20184;-83
2022/10/30 03:12:39;;;;;;;27.55;5.63;;;13.50;99.90;;;;;;4997777;28;20176;-83
2022/10/30 03:15:05;;;;;;;20.25;5.65;;;13.60;99.90;;;;;;4997272;28;20548;-83
2022/10/30 03:17:31;;;;;;;11.50;4.95;;;13.60;99.90;;;;;;4996523;28;20176;-85
2022/10/30 03:19:57;;;;;;;12.50;5.15;;;13.60;99.90;;;;;;4997536;28;20724;-83
2022/10/30 03:22:22;;;;;;;16.75;4.85;;;13.60;99.90;;;;;;4995990;28;20283;-82
2022/10/30 03:24:48;;;;;;;16.35;4.85;;;13.70;99.90;;;;;;4997476;28;20172;-83
2022/10/30 03:27:14;;;;;;;11.93;4.60;;;13.70;99.90;;;;;;4997298;28;20511;-85
2022/10/30 03:29:40;;;;;;;12.13;4.65;;;13.70;99.90;;;;;;4995898;28;20179;-83
2022/10/30 03:32:10;;;;;;;11.45;4.13;;;13.80;99.90;;;;;;4997285;28;20168;-83
2022/10/30 03:34:36;;;;;;;8.18;4.55;;;13.80;99.90;;;;;;4997479;28;20639;-89
2022/10/30 03:37:03;;;;;;;11.23;4.45;;;13.80;99.90;;;;;;4996864;28;20513;-84
2022/10/30 03:39:28;;;;;;;15.02;4.95;;;13.70;99.90;;;;;;4996715;28;20199;-90
2022/10/30 03:41:54;;;;;;;10.73;4.55;;;13.70;99.90;;;;;;4997632;28;20196;-90
2022/10/30 03:44:20;;;;;;;12.32;4.72;;;13.70;99.90;;;;;;4997396;28;20168;-90
2022/10/30 03:46:45;;;;;;;14.20;4.90;;;13.70;99.90;;;;;;4996341;28;20210;-90
2022/10/30 03:49:11;;;;;;;11.43;4.55;;;13.70;99.90;;;;;;4996717;28;20242;-90
2022/10/30 03:51:37;;;;;;;16.25;5.22;;;13.70;99.90;;;;;;4998009;28;20615;-89
2022/10/30 03:54:02;;;;;;;11.00;4.32;;;13.60;99.90;;;;;;4996845;28;20212;-90
2022/10/30 03:56:28;;;;;;;11.20;4.35;;;13.60;99.90;;;;;;4997098;28;20246;-89
2022/10/30 03:58:54;;;;;;;13.38;4.70;;;13.60;99.90;;;;;;4996483;28;20235;-89
2022/10/30 04:01:22;;;;;;;8.73;4.55;;;13.60;99.90;;;;;;4998004;28;20614;-89
2022/10/30 04:03:48;;;;;;;13.82;5.15;;;13.60;99.90;;;;;;4996852;28;20527;-90
2022/10/30 04:06:14;;;;;;;9.93;4.53;;;13.50;99.90;;;;;;4996968;28;20176;-90
2022/10/30 04:08:39;;;;;;;9.00;4.15;;;13.50;99.90;;;;;;4996831;28;20176;-90
2022/10/30 04:11:12;;;;;;;12.65;4.68;;;13.50;99.90;;;;;;4996706;28;20620;-90
2022/10/30 04:13:38;;;;;;;10.88;4.30;;;13.40;99.90;;;;;;4997524;28;20164;-89
2022/10/30 04:16:05;;;;;;;10.68;4.38;;;13.40;99.90;;;;;;4996346;28;20187;-90
2022/10/30 04:18:31;;;;;;;14.05;4.57;;;13.30;99.90;;;;;;4996574;28;20259;-90
2022/10/30 04:20:59;;;;;;;8.65;4.82;;;13.30;99.90;;;;;;4997458;28;20290;-88
2022/10/30 04:23:25;;;;;;;14.57;4.47;;;13.30;99.90;;;;;;4996296;28;20594;-90
2022/10/30 04:25:50;;;;;;;17.52;5.38;;;13.30;99.90;;;;;;4997537;28;20183;-90
2022/10/30 04:28:16;;;;;;;11.73;4.63;;;13.30;99.90;;;;;;4996273;28;20257;-89
2022/10/30 04:30:42;;;;;;;13.23;4.72;;;13.30;99.90;;;;;;4997259;28;20180;-90
2022/10/30 04:33:11;;;;;;;9.88;4.30;;;13.30;99.90;;;;;;4997964;28;20274;-88
2022/10/30 04:35:37;;;;;;;11.80;4.55;;;13.30;99.90;;;;;;5016857;28;20731;-87
2022/10/30 04:38:06;;;;;;;8.07;4.10;;;13.30;99.90;;;;;;5015551;28;20257;-88
2022/10/30 04:40:34;;;;;;;9.18;4.15;;;13.30;99.90;;;;;;5016995;28;20171;-91
2022/10/30 04:43:04;;;;;;;13.52;4.88;;;13.30;99.90;;;;;;5015743;28;20183;-91
2022/10/30 04:45:30;;;;;;;12.20;4.25;;;13.30;99.90;;;;;;5016434;28;20159;-90
2022/10/30 04:48:04;;;;;;;9.73;4.00;;;13.40;99.90;;;;;;5015492;28;20171;-89
2022/10/30 04:50:30;;;;;;;11.18;4.13;;;13.40;99.90;;;;;;5015736;28;20206;-91
2022/10/30 04:53:05;;;;;;;12.10;4.35;;;13.40;99.90;;;;;;5016872;28;20198;-91
2022/10/30 04:55:31;;;;;;;15.63;4.10;;;13.50;99.90;;;;;;5015556;28;20536;-88
2022/10/30 04:57:58;;;;;;;6.82;3.17;;;13.60;99.90;;;;;;5031620;28;20269;-86
2022/10/30 05:00:25;;;;;;;9.05;4.18;;;13.70;99.90;;;;;;5016191;28;20222;-90
2022/10/30 05:02:52;;;;;;;9.82;3.83;;;13.70;99.90;;;;;;5015123;28;20229;-88
2022/10/30 05:05:18;;;;;;;12.77;4.00;;;13.80;99.90;;;;;;4976380;28;20192;-89
2022/10/30 05:07:44;;;;;;;8.95;3.78;;;13.80;99.90;;;;;;4977325;28;20502;-89
2022/10/30 05:10:17;;;;;;;14.27;4.32;;;13.80;99.90;;;;;;4977137;28;20188;-89
2022/10/30 05:12:44;;;;;;;11.00;4.35;;;13.90;99.90;;;;;;4977208;28;20168;-86
2022/10/30 05:15:11;;;;;;;10.93;4.00;;;13.90;99.90;;;;;;4976938;28;20223;-92
2022/10/30 05:17:37;;;;;;;12.43;3.88;;;13.90;99.90;;;;;;4976115;28;20185;-89
2022/10/30 05:20:04;;;;;;;10.07;4.00;;;13.90;99.90;;;;;;4977166;28;20208;-89
2022/10/30 05:22:32;;;;;;;10.45;4.00;;;13.90;99.90;;;;;;4977031;28;20252;-90
2022/10/30 05:24:58;;;;;;;11.77;3.90;;;14.00;99.90;;;;;;4976952;28;20169;-92
2022/10/30 05:27:23;;;;;;;12.25;3.88;;;14.00;99.90;;;;;;4975647;28;20291;-89
2022/10/30 05:29:50;;;;;;;8.93;3.75;;;14.00;99.90;;;;;;4975506;28;20180;-89
2022/10/30 05:32:21;;;;;;;9.93;3.95;;;14.00;99.90;;;;;;4976768;28;20168;-91
2022/10/30 05:34:47;;;;;;;11.00;4.00;;;14.00;99.90;;;;;;4990944;28;20306;-86
2022/10/30 05:37:13;;;;;;;9.57;3.25;;;14.00;99.90;;;;;;4996024;28;20208;-87
2022/10/30 05:39:38;;;;;;;10.70;3.58;;;14.10;99.90;;;;;;4995086;28;20214;-90
2022/10/30 05:42:05;;;;;;;9.23;4.00;;;14.10;99.90;;;;;;4995196;28;20230;-88
2022/10/30 05:44:31;;;;;;;11.98;3.72;;;14.20;99.90;;;;;;4994807;28;20348;-90
2022/10/30 05:46:56;;;;;;;9.38;4.00;;;14.20;99.90;;;;;;4994922;28;20270;-88
2022/10/30 05:49:22;;;;;;;13.75;3.70;;;14.20;99.90;;;;;;4996191;28;20183;-83
2022/10/30 05:51:50;;;;;;;9.85;4.10;;;14.20;99.90;;;;;;4995933;28;20254;-87
2022/10/30 05:54:15;;;;;;;10.63;3.70;;;14.30;99.90;;;;;;4996328;28;20200;-90
2022/10/30 05:56:41;;;;;;;7.03;3.08;;;14.20;99.90;;;;;;4996028;28;20253;-90
2022/10/30 05:59:07;;;;;;;11.95;4.00;;;14.20;99.90;;;;;;4995612;28;20355;-92
2022/10/30 06:01:33;;;;;;;14.10;3.65;;;14.20;99.90;;;;;;4994439;28;20617;-85
2022/10/30 06:03:58;;;;;;;10.30;3.78;;;14.10;99.90;;;;;;4994481;28;20242;-89
2022/10/30 06:06:24;;;;;;;7.68;3.67;;;14.10;99.90;;;;;;4995877;28;20653;-90
2022/10/30 06:08:50;;;;;;;12.73;3.90;;;14.10;99.90;;;;;;4994899;28;20191;-89
2022/10/30 06:11:15;;;;;;;15.00;4.13;;;14.00;99.90;;;;;;4994914;28;20184;-89
2022/10/30 06:13:41;;;;;;;8.13;3.53;;;13.90;99.90;;;;;;4994429;28;20202;-89
2022/10/30 06:16:07;;;;;;;8.07;3.30;;;13.80;99.90;;;;;;4995796;28;20182;-89
2022/10/30 06:18:32;;;;;;;9.25;3.45;;;13.80;99.90;;;;;;4994390;28;20611;-89
2022/10/30 06:20:58;;;;;;;8.60;3.70;;;13.70;99.90;;;;;;4994479;28;20180;-90
2022/10/30 06:23:24;;;;;;;9.75;3.53;;;13.60;99.90;;;;;;4994458;28;20179;-90
2022/10/30 06:25:49;;;;;;;9.68;3.85;;;13.50;99.90;;;;;;4994243;28;20227;-90
2022/10/30 06:28:15;;;;;;;8.90;3.58;;;13.50;99.90;;;;;;4994431;28;20184;-87
2022/10/30 06:30:41;;;;;;;10.25;3.67;;;13.50;99.90;;;;;;4994558;28;20182;-90
2022/10/30 06:33:08;;;;;;;12.23;4.50;;;13.40;99.90;;;;;;4995725;28;20255;-90
2022/10/30 06:35:34;;;;;;;6.57;3.58;;;13.40;99.90;;;;;;4994606;28;20681;-90
2022/10/30 06:38:00;;;;;;;8.48;3.65;;;13.30;99.90;;;;;;4995411;28;20172;-89
2022/10/30 06:40:26;;;;;;;10.15;3.22;;;13.30;99.90;;;;;;4990825;28;20216;-87
2022/10/30 06:42:53;;;;;;;14.63;3.75;;;13.30;99.90;;;;;;4975919;28;20169;-90
2022/10/30 06:45:21;;;;;;;9.50;3.88;;;13.30;99.90;;;;;;4991289;28;20192;-88
2022/10/30 06:47:47;;;;;;;14.60;3.80;;;13.30;99.90;;;;;;4975397;28;20259;-89
2022/10/30 06:50:18;;;;;;;13.98;3.90;;;13.20;99.90;;;;;;4974217;28;20216;-89
2022/10/30 06:52:44;;;;;;;11.35;3.78;;;13.20;99.90;;;;;;4974291;28;20179;-85
2022/10/30 06:55:10;;;;;;;7.80;3.50;;;13.20;99.90;;;;;;4990428;28;20212;-84
2022/10/30 06:57:36;;;;;;;9.40;3.95;;;13.20;99.90;;;;;;4973710;28;20200;-83
2022/10/30 07:00:02;;;;;;;23.85;5.15;;;13.20;99.90;;;;;;4975394;28;20176;-84
2022/10/30 07:02:30;;;;;;;10.35;3.35;;;13.20;99.90;;;;;;4975232;28;20177;-84
2022/10/30 07:04:56;;;;;;;7.22;3.35;;;13.20;99.90;;;;;;4974073;28;20181;-84
2022/10/30 07:07:22;;;;;;;6.70;3.38;;;13.20;99.90;;;;;;4989971;28;20239;-86
2022/10/30 07:09:47;;;;;;;13.55;3.70;;;13.30;99.90;;;;;;4975257;28;20185;-90
2022/10/30 07:12:15;;;;;;;10.73;3.50;;;13.30;99.90;;;;;;5005653;28;20184;-90
2022/10/30 07:14:41;;;;;;;7.05;3.10;;;13.30;99.90;;;;;;4976898;28;20213;-89
2022/10/30 07:17:08;;;;;;;9.23;3.92;;;13.40;99.90;;;;;;4977227;28;20191;-88
2022/10/30 07:19:33;;;;;;;10.15;3.40;;;13.40;99.90;;;;;;4978503;28;20181;-90
2022/10/30 07:22:02;;;;;;;12.05;3.80;;;13.50;99.90;;;;;;4977118;28;20191;-89
2022/10/30 07:24:28;;;;;;;11.90;4.05;;;13.50;99.90;;;;;;4977103;28;20177;-82
2022/10/30 07:26:54;;;;;;;4.70;3.10;;;13.60;99.90;;;;;;4976841;28;20517;-84
2022/10/30 07:29:20;;;;;;;8.65;3.30;;;13.60;99.90;;;;;;4993446;28;20208;-83
2022/10/30 07:31:46;;;;;;;13.38;4.28;;;13.70;99.90;;;;;;4993279;28;20291;-84
2022/10/30 07:34:12;;;;;;;10.90;4.13;;;13.70;99.90;;;;;;4977022;28;20209;-84
2022/10/30 07:36:38;;;;;;;7.72;3.58;;;13.90;99.90;;;;;;4976938;28;20185;-87
2022/10/30 07:39:04;;;;;;;9.82;3.58;;;14.00;99.90;;;;;;4978290;28;20196;-84
2022/10/30 07:41:29;;;;;;;7.57;3.88;;;14.10;99.90;;;;;;4989903;28;20192;-84
2022/10/30 07:43:55;;;;;;;6.65;3.25;;;14.20;99.90;;;;;;4997523;28;20186;-84
2022/10/30 07:46:21;;;;;;;10.20;3.72;;;14.20;99.90;;;;;;4997421;28;20187;-83
2022/10/30 07:48:46;;;;;;;8.93;3.92;;;14.30;99.90;;;;;;4997455;28;20215;-84
2022/10/30 07:51:14;;;;;;;10.65;3.35;;;14.40;99.90;;;;;;4997349;28;20168;-83
2022/10/30 07:53:40;;;;;;;9.15;3.90;;;14.50;99.90;;;;;;4995935;28;20183;-84
2022/10/30 07:56:06;;;;;;;11.40;4.28;;;14.60;99.90;;;;;;4996830;28;20174;-84
2022/10/30 07:58:31;;;;;;;11.20;4.22;;;14.70;99.90;;;;;;4995665;28;20232;-88
2022/10/30 08:00:57;;;;;;;9.85;4.18;;;14.80;99.90;;;;;;4995856;28;20187;-88
2022/10/30 08:03:23;;;;;;;15.10;4.05;;;15.00;99.90;;;;;;4996880;28;20646;-84
2022/10/30 08:05:48;;;;;;;6.97;3.55;;;15.00;99.90;;;;;;4995877;28;20505;-85
2022/10/30 08:08:14;;;;;;;7.05;3.28;;;15.10;99.90;;;;;;4995668;28;20642;-84
2022/10/30 08:10:40;;;;;;;11.82;3.80;;;15.20;99.90;;;;;;4996838;28;20220;-82
2022/10/30 08:13:05;;;;;;;11.75;4.10;;;15.30;99.90;;;;;;4996658;28;20254;-83
2022/10/30 08:15:31;;;;;;;7.97;3.63;;;15.40;99.90;;;;;;4996696;28;20218;-84
2022/10/30 08:17:57;;;;;;;9.40;3.75;;;15.40;99.90;;;;;;4995219;28;20611;-83
2022/10/30 08:20:23;;;;;;;13.32;4.13;;;15.50;99.90;;;;;;4995321;28;20238;-83
2022/10/30 08:22:51;;;;;;;9.57;3.78;;;15.60;99.90;;;;;;4996505;28;20627;-83
2022/10/30 08:25:19;;;;;;;9.15;3.55;;;15.70;99.90;;;;;;4994999;28;20247;-83
2022/10/30 08:27:53;;;;;;;11.80;3.83;;;15.70;99.90;;;;;;4994795;28;20238;-84
2022/10/30 08:30:19;;;;;;;9.18;3.70;;;15.80;99.90;;;;;;4996410;28;20194;-85
2022/10/30 08:32:45;;;;;;;13.02;3.75;;;15.90;99.90;;;;;;4996070;28;20623;-83
2022/10/30 08:35:11;;;;;;;12.60;3.78;;;15.90;99.90;;;;;;4994975;28;20216;-83
2022/10/30 08:37:36;;;;;;;11.38;3.70;;;16.00;99.90;;;;;;4996236;28;20565;-83
2022/10/30 08:40:02;;;;;;;9.60;3.85;;;16.10;99.90;;;;;;4994746;28;20183;-84
2022/10/30 08:42:28;;;;;;;15.82;4.18;;;16.10;99.90;;;;;;4994529;28;20271;-84
2022/10/30 08:44:55;;;;;;;14.27;3.83;;;16.20;99.90;;;;;;4995889;28;20561;-89
2022/10/30 08:47:20;;;;;;;12.98;4.07;;;16.20;99.90;;;;;;4995887;28;20168;-85
2022/10/30 08:49:46;;;;;;;14.00;3.92;;;16.30;99.90;;;;;;4995865;28;20238;-85
2022/10/30 08:52:12;;;;;;;10.93;3.42;;;16.40;99.90;;;;;;4995937;28;20180;-84
2022/10/30 08:54:38;;;;;;;13.60;3.70;;;16.50;99.90;;;;;;4994263;28;20211;-83
2022/10/30 08:57:04;;;;;;;13.27;4.07;;;16.60;99.90;;;;;;4995599;28;20161;-83
2022/10/30 08:59:30;;;;;;;13.70;3.97;;;16.70;99.90;;;;;;4994182;28;20236;-83
2022/10/30 09:01:55;;;;;;;14.60;4.30;;;16.80;99.90;;;;;;4995733;28;20174;-85
2022/10/30 09:04:21;;;;;;;17.33;3.97;;;16.80;99.90;;;;;;4994933;28;20329;-85
2022/10/30 09:06:47;;;;;;;10.98;4.07;;;16.90;99.90;;;;;;4994999;28;20191;-88
2022/10/30 09:09:13;;;;;;;9.57;3.90;;;16.90;99.90;;;;;;4995894;28;20175;-89
2022/10/30 09:11:39;;;;;;;8.93;3.50;;;17.00;99.90;;;;;;4994934;28;20195;-91
2022/10/30 09:14:05;;;;;;;12.80;3.97;;;17.00;99.90;;;;;;4995202;28;20222;-88
2022/10/30 09:16:30;;;;;;;8.73;3.42;;;17.00;99.90;;;;;;4996338;28;20187;-89
2022/10/30 09:18:56;;;;;;;10.13;3.38;;;17.00;99.90;;;;;;4995242;28;20238;-86
2022/10/30 09:21:24;;;;;;;12.50;3.22;;;17.10;99.90;;;;;;4995194;28;20183;-92
2022/10/30 09:23:50;;;;;;;11.25;3.72;;;17.20;99.90;;;;;;4995014;28;20634;-87
2022/10/30 09:26:16;;;;;;;12.75;3.75;;;17.30;99.90;;;;;;4994639;28;20271;-83
2022/10/30 09:28:41;;;;;;;8.00;3.78;;;17.30;99.90;;;;;;4996152;28;20186;-88
2022/10/30 09:31:07;;;;;;;13.43;3.60;;;17.30;99.90;;;;;;4994797;28;20267;-87
2022/10/30 09:33:35;;;;;;;10.02;3.50;;;17.40;99.90;;;;;;4994786;28;20226;-90
2022/10/30 09:36:01;;;;;;;12.00;3.55;;;17.40;99.90;;;;;;4994217;28;20176;-85
2022/10/30 09:38:28;;;;;;;9.38;3.17;;;17.40;99.90;;;;;;4995100;28;20180;-88
2022/10/30 09:41:09;;;;;;;15.15;3.10;;;17.50;99.90;;;;;;5003357;28;20187;-91
2022/10/30 09:43:52;;;;;;;10.70;3.75;;;17.50;99.90;;;;;;5015265;28;20174;-89
2022/10/30 09:46:23;;;;;;;10.27;3.40;;;17.60;99.90;;;;;;5015398;28;20240;-89
2022/10/30 09:49:12;;;;;;;12.82;3.83;;;17.70;99.90;;;;;;5014175;28;20262;-90
2022/10/30 09:52:19;;;;;;;8.52;3.20;;;17.70;99.90;;;;;;5014508;28;20178;-91
2022/10/30 09:55:16;;;;;;;9.52;3.60;;;17.80;99.90;;;;;;5015535;28;20203;-91
2022/10/30 09:57:49;;;;;;;11.80;3.35;;;17.80;99.90;;;;;;5014592;28;20203;-88
2022/10/30 10:00:26;;;;;;;10.60;3.22;;;17.90;99.90;;;;;;5015311;28;20175;-90
2022/10/30 10:03:26;;;;;;;9.25;3.47;;;18.00;99.90;;;;;;5014019;28;20201;-91
2022/10/30 10:05:58;;;;;;;10.13;3.10;;;18.10;99.90;;;;;;5014106;28;20186;-89
2022/10/30 10:08:38;;;;;;;10.88;3.85;;;18.10;99.90;;;;;;5014166;28;20625;-89
2022/10/30 10:11:26;;;;;;;9.55;3.50;;;18.20;99.90;;;;;;5004270;28;20184;-94
2022/10/30 10:14:15;;;;;;;7.60;3.17;;;18.20;99.90;;;;;;4994301;28;20204;-86
2022/10/30 10:16:44;;;;;;;17.73;4.07;;;18.30;99.90;;;;;;5010694;28;20191;-84
2022/10/30 10:19:39;;;;;;;9.05;3.05;;;18.40;99.90;;;;;;4994094;28;20260;-91
2022/10/30 10:22:31;;;;;;;15.75;3.22;;;18.40;99.90;;;;;;4994556;28;20176;-88
2022/10/30 10:24:57;;;;;;;7.28;3.08;;;18.50;99.90;;;;;;4992460;28;20270;-89
2022/10/30 10:27:43;;;;;;;7.07;2.97;;;18.50;99.90;;;;;;4994086;28;20607;-91
2022/10/30 10:30:21;;;;;;;8.77;3.10;;;18.70;99.90;;;;;;4982464;28;20188;-89
2022/10/30 10:33:14;;;;;;;9.85;3.20;;;18.80;99.90;;;;;;4974846;28;20187;-89
2022/10/30 10:35:49;;;;;;;9.32;2.75;;;18.80;99.90;;;;;;4974677;28;20219;-90
2022/10/30 10:38:40;;;;;;;12.98;3.40;;;18.80;99.90;;;;;;4987125;28;20191;-89
2022/10/30 10:41:29;;;;;;;6.53;3.17;;;18.80;99.90;;;;;;4995340;28;20549;-88
2022/10/30 10:44:29;;;;;;;11.23;2.97;;;18.80;99.90;;;;;;4995285;28;20168;-89
2022/10/30 10:47:46;;;;;;;7.45;2.80;;;18.90;99.90;;;;;;4995703;28;20169;-89
2022/10/30 10:50:30;;;;;;;15.57;3.20;;;19.00;99.90;;;;;;4977101;28;20262;-91
2022/10/30 10:53:02;;;;;;;8.13;2.83;;;19.10;99.90;;;;;;4998044;28;20172;-91
2022/10/30 10:55:35;;;;;;;14.02;3.53;;;19.20;99.90;;;;;;4998025;28;20207;-89
2022/10/30 10:58:29;;;;;;;11.65;3.63;;;19.20;99.90;;;;;;4997749;28;20231;-90
2022/10/30 11:00:57;;;;;;;9.43;3.28;;;19.30;99.90;;;;;;4997886;28;20199;-91
2022/10/30 11:03:57;;;;;;;10.02;3.83;;;19.30;99.90;;;;;;4997919;28;20201;-89
2022/10/30 11:06:39;;;;;;;12.88;3.40;;;19.40;99.90;;;;;;4991250;28;20650;-90
2022/10/30 11:09:18;;;;;;;9.60;3.38;;;19.60;99.90;;;;;;4997707;28;20171;-89
2022/10/30 11:11:45;;;;;;;14.77;3.15;;;19.60;99.90;;;;;;4997633;28;20187;-90
2022/10/30 11:14:28;;;;;;;9.38;2.95;;;19.60;99.90;;;;;;4998755;28;20238;-87
2022/10/30 11:17:09;;;;;;;7.22;3.13;;;19.80;99.90;;;;;;4997660;28;20183;-91
2022/10/30 11:19:35;;;;;;;11.60;3.15;;;19.80;99.90;;;;;;4998853;28;20226;-92
2022/10/30 11:22:03;;;;;;;7.35;2.97;;;19.80;99.90;;;;;;4998844;28;20255;-90
2022/10/30 11:24:33;;;;;;;6.30;2.70;;;19.80;99.90;;;;;;4998708;28;20172;-91
2022/10/30 11:27:27;;;;;;;14.30;3.53;;;19.80;99.90;;;;;;4997500;28;20190;-89
2022/10/30 11:30:02;;;;;;;22.00;4.32;;;19.80;99.90;;;;;;4996905;28;20207;-93
2022/10/30 11:32:32;;;;;;;11.82;3.10;;;19.90;99.90;;;;;;4998674;28;20298;-89
2022/10/30 11:35:07;;;;;;;10.77;3.13;;;20.00;99.90;;;;;;4996914;28;20306;-84
2022/10/30 11:37:41;;;;;;;10.23;3.00;;;20.20;99.90;;;;;;4996573;28;20168;-88
2022/10/30 11:40:17;;;;;;;15.23;2.90;;;20.30;99.90;;;;;;4996196;28;20194;-85
2022/10/30 11:42:48;;;;;;;9.77;3.10;;;20.40;99.90;;;;;;4997675;28;20168;-86
2022/10/30 11:45:31;;;;;;;11.85;3.40;;;20.60;99.90;;;;;;4998131;28;20592;-86
2022/10/30 11:47:59;;;;;;;9.75;3.05;;;20.70;99.90;;;;;;4996804;28;20167;-85
2022/10/30 11:50:28;;;;;;;12.55;3.15;;;20.70;99.90;;;;;;4997824;28;20514;-85
2022/10/30 11:53:00;;;;;;;7.88;2.78;;;20.90;99.90;;;;;;4997722;28;20171;-84
2022/10/30 11:55:44;;;;;;;6.85;3.00;;;20.90;99.90;;;;;;4996564;28;20203;-90
2022/10/30 11:58:34;;;;;;;13.82;3.08;;;20.90;99.90;;;;;;4996488;28;20235;-85
2022/10/30 12:01:24;;;;;;;9.00;2.97;;;20.90;99.90;;;;;;4996614;28;20182;-89
2022/10/30 12:03:52;;;;;;;10.95;3.25;;;20.90;99.90;;;;;;4997805;28;20591;-94
2022/10/30 12:06:24;;;;;;;10.57;3.10;;;20.90;99.90;;;;;;4996316;28;20183;-84
2022/10/30 12:09:02;;;;;;;6.88;2.92;;;21.00;99.90;;;;;;4997518;28;20160;-89
2022/10/30 12:11:42;;;;;;;12.90;3.40;;;20.90;99.90;;;;;;4997635;28;20425;-88
2022/10/30 12:14:23;;;;;;;12.68;3.25;;;21.00;99.90;;;;;;4997188;28;20202;-91
2022/10/30 12:16:52;;;;;;;10.15;2.83;;;21.00;99.90;;;;;;4996327;28;20578;-86
2022/10/30 12:19:21;;;;;;;12.60;2.88;;;21.10;99.90;;;;;;4996484;28;20180;-91
2022/10/30 12:21:52;;;;;;;10.35;2.90;;;21.20;99.90;;;;;;4996239;28;20180;-84
2022/10/30 12:24:31;;;;;;;12.43;3.53;;;21.20;99.90;;;;;;4996386;28;20558;-93
2022/10/30 12:27:01;;;;;;;10.85;2.95;;;21.30;99.90;;;;;;4995643;28;20529;-85
2022/10/30 12:29:42;;;;;;;11.10;3.35;;;21.30;99.90;;;;;;4997147;28;20522;-90
2022/10/30 12:32:20;;;;;;;14.60;3.28;;;21.50;99.90;;;;;;4995990;28;20179;-85
2022/10/30 12:35:02;;;;;;;7.72;2.70;;;21.50;99.90;;;;;;4995443;28;20219;-91
2022/10/30 12:37:41;;;;;;;15.30;3.22;;;21.40;99.90;;;;;;4997126;28;20164;-87
2022/10/30 12:40:16;;;;;;;11.10;2.92;;;21.50;99.90;;;;;;4995670;28;20176;-88
2022/10/30 12:42:53;;;;;;;11.48;3.40;;;21.50;99.90;;;;;;4995559;28;20186;-86
2022/10/30 12:45:39;;;;;;;11.23;3.15;;;21.60;99.90;;;;;;4996936;28;20168;-90
2022/10/30 12:48:13;;;;;;;10.07;3.42;;;21.70;99.90;;;;;;4995561;28;20258;-89
2022/10/30 12:51:02;;;;;;;12.80;2.97;;;21.80;99.90;;;;;;4995506;28;20183;-90
2022/10/30 12:53:37;;;;;;;9.48;3.20;;;21.90;99.90;;;;;;4991081;28;20196;-90
2022/10/30 12:56:27;;;;;;;10.60;3.80;;;22.00;99.90;;;;;;4995131;28;20211;-85
2022/10/30 12:59:15;;;;;;;8.00;3.25;;;22.10;99.90;;;;;;4995071;28;20594;-90